Latest Weather Observations for Townsville

IDQ60801

Issued at 3:02 pm EST Wednesday 29 June 2016 (issued every 30 minutes, with the page automatically refreshed every 10 minutes)

About weather observations | Map of weather stations | Latest weather observations for QLD | Other Formats
Station Details ID: 032040 Name: TOWNSVILLE AERO Lat: -19.25 Lon: 146.77 Height: 4.34 m
Data from the previous 72 hours. | See also: Recent months at Townsville
Date/Time
EST
Temp
°C
App
Temp
°C
Dew
Point
°C
Rel
Hum
%
Delta-T
°C
Wind Press
QNH
hPa
Press
MSL
hPa
Rain since
9am
mm
Dir  Spd
km/h
Gust
km/h
Spd
kts
Gust
kts
29/03:00pm 22.5 18.6 8.5 40 7.4 NE 19 26 10 14 1020.6 1020.6 0.0
29/02:30pm 21.8 18.4 9.0 44 6.8 NE 17 28 9 15 1020.7 1020.7 0.0
29/02:00pm 21.8 18.6 8.5 42 7.0 ENE 15 24 8 13 1020.9 1020.9 0.0
29/01:30pm 21.5 18.2 8.0 42 7.0 NNE 15 30 8 16 1021.4 1021.4 0.0
29/01:00pm 21.1 19.2 7.5 41 7.0 ESE 7 15 4 8 1021.9 1021.9 0.0
29/12:30pm 20.8 17.8 5.9 37 7.4 SSE 11 17 6 9 1022.4 1022.4 0.0
29/12:00pm 20.0 17.1 4.4 35 7.5 SE 9 15 5 8 1022.9 1022.9 0.0
29/11:30am 19.5 16.5 3.9 35 7.4 ESE 9 17 5 9 1023.4 1023.4 0.0
29/11:00am 19.0 16.0 4.0 37 7.1 SE 9 15 5 8 1023.7 1023.7 0.0
29/10:30am 18.2 14.7 3.3 37 6.9 SSW 11 19 6 10 1024.0 1024.0 0.0
29/10:00am 18.0 13.7 3.0 36 6.9 S 15 20 8 11 1024.1 1024.1 0.0
29/09:30am 17.4 13.4 2.6 37 6.7 SW 13 20 7 11 1024.0 1024.0 0.0
29/09:27am 17.1 12.7 2.5 37 6.6 SW 15 20 8 11 1024.0 1024.0 0.0
29/09:00am 16.6 12.1 2.3 38 6.4 SW 15 19 8 10 1024.1 1024.1 0.0
29/08:30am 15.9 11.9 3.1 42 5.8 SSW 13 15 7 8 1024.1 1024.1 0.0
29/08:00am 14.6 11.2 4.1 49 4.8 SSW 11 13 6 7 1023.9 1023.9 0.0
29/07:30am 13.2 9.9 4.7 56 3.9 SSW 11 15 6 8 1023.7 1023.7 0.0
29/07:00am 11.7 10.5 4.6 62 3.2 CALM 0 0 0 0 1023.3 1023.3 0.0
29/06:30am 12.1 9.7 4.1 58 3.6 SSW 6 11 3 6 1023.1 1023.1 0.0
29/06:00am 12.4 10.4 4.2 57 3.7 SSW 4 7 2 4 1023.0 1023.0 0.0
29/05:30am 12.9 10.2 3.5 53 4.2 SE 7 11 4 6 1022.9 1022.9 0.0
29/05:00am 12.4 9.4 3.9 56 3.8 SSE 9 9 5 5 1022.7 1022.7 0.0
29/04:30am 13.1 9.2 3.2 51 4.4 SSE 13 13 7 7 1022.7 1022.7 0.0
29/04:00am 13.8 10.5 2.7 47 4.9 SSE 9 13 5 7 1022.8 1022.8 0.0
29/03:30am 14.8 9.6 2.3 43 5.5 SSE 19 26 10 14 1022.9 1022.9 0.0
29/03:00am 14.2 11.0 3.0 47 5.0 SSE 9 15 5 8 1022.9 1022.9 0.0
29/02:30am 15.0 11.3 2.6 43 5.5 S 11 19 6 10 1022.9 1022.9 0.0
29/02:00am 15.0 10.5 2.3 42 5.6 SSE 15 20 8 11 1022.9 1022.9 0.0
29/01:30am 15.5 11.3 1.8 39 6.0 SE 13 15 7 8 1023.1 1023.1 0.0
29/01:00am 15.0 11.7 2.6 43 5.5 S 9 11 5 6 1023.3 1023.3 0.0
29/12:30am 15.0 11.0 2.9 44 5.4 S 13 17 7 9 1023.2 1023.2 0.0
29/12:00am 15.1 10.7 2.8 43 5.5 S 15 17 8 9 1023.3 1023.3 0.0
 
Date/Time
EST
Temp
°C
App
Temp
°C
Dew
Point
°C
Rel
Hum
%
Delta-T
°C
Wind Press
QNH
hPa
Press
MSL
hPa
Rain since
9am
mm
Dir  Spd
km/h
Gust
km/h
Spd
kts
Gust
kts
28/11:30pm 15.2 11.3 3.5 45 5.3 S 13 15 7 8 1023.2 1023.2 0.0
28/11:00pm 16.1 12.9 3.1 41 5.9 SSE 9 11 5 6 1023.3 1023.3 0.0
28/10:30pm 17.5 12.0 0.8 32 7.3 S 19 26 10 14 1023.4 1023.4 0.0
28/10:00pm 17.9 12.2 0.8 31 7.5 S 20 28 11 15 1023.1 1023.1 0.0
28/09:30pm 17.9 14.0 1.2 32 7.4 S 11 19 6 10 1023.1 1023.1 0.0
28/09:00pm 18.4 13.7 0.7 30 7.8 S 15 19 8 10 1022.7 1022.7 0.0
28/08:30pm 19.6 13.9 -0.8 25 8.8 S 19 24 10 13 1022.3 1022.3 0.0
28/08:00pm 19.6 14.7 2.1 31 8.0 S 17 24 9 13 1021.9 1021.9 0.0
28/07:30pm 20.3 16.3 2.7 31 8.2 S 13 19 7 10 1021.5 1021.5 0.0
28/07:00pm 21.0 15.9 2.9 30 8.5 S 19 26 10 14 1021.1 1021.1 0.0
28/06:30pm 20.7 16.4 5.2 36 7.6 S 17 24 9 13 1020.6 1020.6 0.0
28/06:00pm 21.5 17.8 4.7 33 8.2 SSE 13 19 7 10 1020.2 1020.2 0.0
28/05:30pm 22.6 18.2 5.0 32 8.7 S 17 20 9 11 1019.8 1019.8 0.0
28/05:00pm 23.6 18.7 4.3 28 9.5 S 19 24 10 13 1019.4 1019.4 0.0
28/04:30pm 24.0 18.5 4.1 27 9.8 SSW 22 30 12 16 1019.1 1019.1 0.0
28/04:00pm 24.3 18.0 4.0 26 10.0 S 26 32 14 17 1018.9 1018.9 0.0
28/03:30pm 24.8 18.7 2.9 24 10.6 SSW 24 33 13 18 1018.8 1018.8 0.0
28/03:00pm 25.3 19.7 1.3 21 11.3 SSW 20 32 11 17 1018.7 1018.7 0.0
28/02:30pm 24.9 19.2 2.7 23 10.7 SSW 22 30 12 16 1018.5 1018.5 0.0
28/02:00pm 25.0 19.7 4.9 27 10.1 SSW 22 30 12 16 1018.7 1018.7 0.0
28/01:30pm 24.4 18.9 6.0 30 9.4 SSW 24 35 13 19 1019.0 1019.0 0.0
28/01:00pm 23.8 17.3 4.6 28 9.5 SSW 28 35 15 19 1019.4 1019.4 0.0
28/12:30pm 23.3 16.9 5.0 30 9.1 SSW 28 35 15 19 1019.8 1019.8 0.0
28/12:00pm 23.2 17.1 6.6 34 8.5 SSW 28 37 15 20 1020.1 1020.1 0.0
28/11:30am 22.4 16.4 7.0 37 7.9 SW 28 37 15 20 1020.4 1020.4 0.0
28/11:00am 21.3 15.5 7.8 41 7.0 SW 28 35 15 19 1020.7 1020.7 0.0
28/10:30am 20.8 14.7 8.3 44 6.5 SW 30 35 16 19 1020.9 1020.9 0.0
28/10:00am 20.5 14.8 8.4 45 6.3 SSW 28 33 15 18 1021.0 1021.0 0.0
28/09:30am 19.4 12.9 8.1 48 5.8 SW 32 37 17 20 1021.0 1021.0 0.0
28/09:00am 18.8 12.1 8.3 50 5.4 SSW 33 43 18 23 1021.0 1021.0 0.0
28/08:30am 18.2 11.6 7.7 50 5.3 SW 32 46 17 25 1020.8 1020.8 0.0
28/08:00am 17.8 10.8 8.4 54 4.8 SSW 35 48 19 26 1020.5 1020.5 0.0
28/07:30am 17.7 12.2 9.0 56 4.5 SSW 28 39 15 21 1020.2 1020.2 0.0
28/07:00am 17.8 12.3 9.1 56 4.5 SW 28 39 15 21 1019.8 1019.8 0.0
28/06:30am 18.2 13.9 9.2 55 4.7 SW 22 32 12 17 1019.4 1019.4 0.0
28/06:00am 18.5 13.0 9.3 55 4.8 SW 28 37 15 20 1018.8 1018.8 0.0
28/05:30am 18.9 14.2 9.4 54 5.0 SW 24 35 13 19 1018.5 1018.5 0.0
28/05:00am 19.5 13.3 9.5 52 5.3 SW 32 41 17 22 1018.2 1018.2 0.0
28/04:30am 19.8 14.4 9.6 51 5.4 SW 28 35 15 19 1017.6 1017.6 0.0
28/04:00am 20.1 14.1 10.0 52 5.4 SW 32 39 17 21 1017.6 1017.6 0.0
28/03:30am 20.6 14.4 10.2 51 5.6 SSW 33 44 18 24 1017.5 1017.5 0.0
28/03:00am 20.9 15.5 10.8 52 5.5 SSW 30 43 16 23 1017.5 1017.5 0.0
28/02:30am 21.6 16.3 11.1 51 5.8 SSW 30 41 16 22 1017.4 1017.4 0.0
28/02:00am 22.0 17.4 11.2 50 6.0 SSW 26 33 14 18 1017.4 1017.4 0.0
28/01:30am 22.4 19.3 12.1 52 5.8 SSW 20 32 11 17 1017.6 1017.6 0.0
28/01:00am 23.1 20.2 13.0 53 5.8 SSW 20 30 11 16 1017.4 1017.4 0.0
28/12:30am 23.5 19.9 14.3 56 5.4 SSW 26 33 14 18 1017.2 1017.2 0.0
28/12:00am 24.3 22.1 17.0 63 4.5 SSW 24 30 13 16 1017.3 1017.3 0.0
 
Date/Time
EST
Temp
°C
App
Temp
°C
Dew
Point
°C
Rel
Hum
%
Delta-T
°C
Wind Press
QNH
hPa
Press
MSL
hPa
Rain since
9am
mm
Dir  Spd
km/h
Gust
km/h
Spd
kts
Gust
kts
27/11:30pm 24.0 27.2 21.7 87 1.5 SSW 7 9 4 5 1017.1 1017.1 0.0
27/11:00pm 23.8 28.6 22.1 90 1.1 CALM 0 4 0 2 1017.1 1017.1 0.0
27/10:30pm 23.8 26.8 22.0 90 1.2 SSW 9 13 5 7 1017.2 1017.2 0.0
27/10:00pm 23.3 26.8 21.9 92 0.9 S 6 11 3 6 1017.0 1017.0 0.0
27/09:30pm 23.2 27.9 22.0 93 0.8 CALM 0 0 0 0 1016.8 1016.8 0.0
27/09:00pm 23.7 28.4 22.0 90 1.1 CALM 0 0 0 0 1016.7 1016.7 0.0
27/08:30pm 23.6 27.1 22.1 91 1.0 SSE 7 9 4 5 1016.6 1016.6 0.0
27/08:00pm 23.6 28.3 21.9 90 1.1 CALM 0 0 0 0 1016.5 1016.5 0.0
27/07:30pm 23.6 27.1 22.1 91 1.0 E 7 9 4 5 1016.4 1016.4 0.0
27/07:00pm 23.7 27.1 22.0 90 1.1 E 7 9 4 5 1016.1 1016.1 0.0
27/06:30pm 23.8 26.9 22.1 90 1.1 ENE 9 11 5 6 1015.8 1015.8 0.0
27/06:00pm 24.1 27.2 22.1 88 1.3 ENE 9 11 5 6 1015.5 1015.5 0.0
27/05:30pm 24.7 27.4 22.2 86 1.7 ENE 11 15 6 8 1015.3 1015.3 0.0
27/05:00pm 25.6 28.1 21.8 79 2.5 NE 11 15 6 8 1014.8 1014.8 0.0
27/04:30pm 25.9 27.7 21.9 78 2.7 ENE 15 17 8 9 1014.6 1014.6 0.0
27/04:00pm 26.5 28.5 21.5 74 3.3 ENE 13 17 7 9 1014.4 1014.4 0.0
27/03:30pm 27.2 29.2 21.5 71 3.8 ENE 13 17 7 9 1014.2 1014.2 0.0
27/03:00pm 27.3 29.3 21.6 71 3.8 NE 13 17 7 9 1014.2 1014.2 0.0
27/02:30pm 27.6 29.3 21.6 70 4.0 NE 15 19 8 10 1014.2 1014.2 0.0
27/02:00pm 27.8 29.0 21.5 68 4.2 NE 17 20 9 11 1014.4 1014.4 0.0
27/01:30pm 27.3 29.1 21.1 69 4.1 NE 13 19 7 10 1014.7 1014.7 0.0
27/01:00pm 27.1 29.3 21.2 70 3.9 NE 11 17 6 9 1015.2 1015.2 0.0
27/12:30pm 26.6 29.6 21.2 72 3.6 NNE 7 15 4 8 1015.6 1015.6 0.0
27/12:00pm 26.5 29.6 21.4 73 3.4 NE 7 11 4 6 1016.0 1016.0 0.0
27/11:30am 25.7 28.4 22.1 80 2.4 ENE 11 13 6 7 1016.3 1016.3 0.0
27/11:00am 25.5 27.8 21.3 77 2.8 NE 11 13 6 7 1016.6 1016.6 0.0
27/10:30am 25.9 27.7 21.2 75 3.1 ENE 13 15 7 8 1016.7 1016.7 0.0
27/10:00am 26.0 27.8 21.2 75 3.2 ENE 13 17 7 9 1016.8 1016.8 0.0
27/09:30am 25.5 27.5 20.8 75 3.1 ENE 11 15 6 8 1017.0 1017.0 0.0
27/09:00am 25.2 27.5 20.6 75 3.0 E 9 13 5 7 1016.8 1016.8 0.0
27/08:30am 24.4 26.9 20.2 77 2.7 SSE 7 13 4 7 1016.8 1016.8 0.0
27/08:00am 23.3 27.1 20.2 83 2.0 CALM 0 0 0 0 1016.6 1016.6 0.0
27/07:30am 22.7 26.5 20.1 85 1.7 CALM 0 2 0 1 1016.2 1016.2 0.0
27/07:00am 22.3 26.1 20.1 87 1.4 CALM 0 0 0 0 1016.2 1016.2 0.0
27/06:30am 22.0 24.3 19.8 87 1.4 SE 7 9 4 5 1015.7 1015.7 0.0
27/06:00am 22.4 24.0 19.9 86 1.6 SE 11 13 6 7 1015.6 1015.6 0.0
27/05:30am 22.3 24.6 19.8 86 1.6 ESE 7 9 4 5 1015.3 1015.3 0.0
27/05:00am 22.5 24.3 19.5 83 1.9 ESE 9 11 5 6 1015.1 1015.1 0.0
27/04:30am 22.5 24.7 19.5 83 1.9 SE 7 11 4 6 1014.9 1014.9 0.0
27/04:00am 22.6 24.4 19.5 82 2.0 SE 9 11 5 6 1014.8 1014.8 0.0
27/03:30am 22.6 24.0 19.5 82 2.0 SE 11 13 6 7 1014.7 1014.7 0.0
27/03:00am 22.5 24.3 19.5 83 1.9 SE 9 11 5 6 1014.7 1014.7 0.0
27/02:30am 22.6 24.8 19.5 82 2.0 ESE 7 9 4 5 1014.9 1014.9 0.0
27/02:27am 22.6 24.4 19.5 82 2.0 ESE 9 9 5 5 1014.9 1014.9 0.0
27/02:00am 22.6 24.2 19.1 80 2.2 ESE 9 11 5 6 1015.0 1015.0 0.0
27/01:30am 22.6 24.2 19.1 80 2.2 SE 9 11 5 6 1015.4 1015.4 0.0
27/01:00am 22.6 23.8 19.1 80 2.2 SE 11 13 6 7 1015.6 1015.6 0.0
27/12:30am 22.5 23.8 19.4 82 2.0 ESE 11 13 6 7 1015.5 1015.5 0.0
27/12:00am 22.5 23.4 19.2 81 2.1 ESE 13 17 7 9 1015.6 1015.6 0.0
 
Date/Time
EST
Temp
°C
App
Temp
°C
Dew
Point
°C
Rel
Hum
%
Delta-T
°C
Wind Press
QNH
hPa
Press
MSL
hPa
Rain since
9am
mm
Dir  Spd
km/h
Gust
km/h
Spd
kts
Gust
kts
26/11:30pm 22.5 23.6 18.9 80 2.3 SE 11 15 6 8 1015.6 1015.6 0.0
26/11:00pm 22.4 23.1 18.9 80 2.2 ESE 13 15 7 8 1015.8 1015.8 0.0
26/10:30pm 22.4 23.2 19.1 81 2.1 SE 13 15 7 8 1015.8 1015.8 0.0
26/10:00pm 22.3 23.1 19.0 81 2.1 ESE 13 17 7 9 1016.0 1016.0 0.0
26/09:30pm 22.1 22.4 18.8 81 2.1 ESE 15 19 8 10 1016.0 1016.0 0.0
26/09:00pm 21.9 22.4 18.4 80 2.2 SE 13 15 7 8 1016.1 1016.1 0.0
26/08:30pm 21.9 22.0 18.4 80 2.2 ESE 15 19 8 10 1015.9 1015.9 0.0
26/08:00pm 22.3 22.4 18.3 78 2.5 ESE 15 22 8 12 1015.8 1015.8 0.0
26/07:30pm 22.4 22.9 18.4 78 2.5 ESE 13 19 7 10 1015.6 1015.6 0.0
26/07:00pm 22.5 23.0 18.3 77 2.6 ESE 13 17 7 9 1015.4 1015.4 0.0
26/06:30pm 22.5 22.7 18.5 78 2.5 ESE 15 19 8 10 1015.2 1015.2 0.0
26/06:00pm 22.5 22.2 18.3 77 2.6 E 17 28 9 15 1015.0 1015.0 0.0
26/05:30pm 22.7 22.7 18.1 75 2.9 ESE 15 19 8 10 1014.9 1014.9 0.0
26/05:00pm 22.9 22.4 17.9 73 3.1 ESE 17 22 9 12 1014.6 1014.6 0.0
26/04:30pm 22.9 22.8 17.9 73 3.1 ESE 15 20 8 11 1014.4 1014.4 0.0
26/04:00pm 23.1 22.7 18.1 73 3.1 ESE 17 20 9 11 1014.3 1014.3 0.0
26/03:30pm 23.2 22.7 17.9 72 3.3 E 17 20 9 11 1014.2 1014.2 0.0

Other Formats:

Comma delimited format used in spreadsheet applications
http://www.bom.gov.au/fwo/IDQ60801/IDQ60801.94294.axf

JavaScript Object Notation format (JSON) in row-major order
http://www.bom.gov.au/fwo/IDQ60801/IDQ60801.94294.json